Time;durP1;ratioP1;P1;durP2;ratioP2;P2;SDS_P1;SDS_P2;PMS_P1;PMS_P2;Temp;Humidity;BMP_temperature;BMP_pressure;BME280_temperature;BME280_humidity;BME280_pressure;Samples;Min_cycle;Max_cycle;Signal;HPM_P1;HPM_P2
2020/12/02 00:02:33;;;;;;;30.43;20.73;;;7.50;87.20;;;;;;5097320;27;20059;-80
2020/12/02 00:05:04;;;;;;;27.80;18.77;;;7.60;87.30;;;;;;5113649;27;20413;-80
2020/12/02 00:07:34;;;;;;;30.90;20.03;;;7.60;87.00;;;;;;5113826;27;20023;-80
2020/12/02 00:10:00;;;;;;;27.60;18.80;;;7.60;87.10;;;;;;5113581;27;20159;-80
2020/12/02 00:12:26;;;;;;;25.80;18.17;;;7.70;87.20;;;;;;5133061;27;20108;-79
2020/12/02 00:14:52;;;;;;;29.03;19.37;;;7.60;86.90;;;;;;5132195;27;20051;-79
2020/12/02 00:17:20;;;;;;;28.33;18.07;;;7.70;87.00;;;;;;5114129;27;20031;-79
2020/12/02 00:19:48;;;;;;;25.77;17.97;;;7.60;86.90;;;;;;5131452;27;20528;-80
2020/12/02 00:22:17;;;;;;;26.73;18.13;;;7.70;87.00;;;;;;5097138;27;20080;-79
2020/12/02 00:24:43;;;;;;;24.00;16.73;;;7.70;86.80;;;;;;5112634;27;20023;-81
2020/12/02 00:27:20;;;;;;;22.77;16.17;;;7.50;86.60;;;;;;5081156;28;20038;-79
2020/12/02 00:29:46;;;;;;;22.50;15.97;;;7.50;86.90;;;;;;5109326;27;20122;-80
2020/12/02 00:32:39;;;;;;;25.30;17.17;;;7.50;87.00;;;;;;5112344;27;20034;-80
2020/12/02 00:35:17;;;;;;;24.63;16.40;;;7.40;86.90;;;;;;5132014;27;20050;-79
2020/12/02 00:37:43;;;;;;;26.70;17.83;;;7.40;87.00;;;;;;5115770;27;20027;-81
2020/12/02 00:40:12;;;;;;;27.33;17.77;;;7.40;87.20;;;;;;5113705;27;20035;-80
2020/12/02 00:42:37;;;;;;;26.80;17.47;;;7.30;87.30;;;;;;5112756;27;20024;-80
2020/12/02 00:45:06;;;;;;;23.37;16.00;;;7.30;87.50;;;;;;5096321;27;20103;-80
2020/12/02 00:47:32;;;;;;;26.60;17.70;;;7.20;87.60;;;;;;5108151;28;20030;-80
2020/12/02 00:49:58;;;;;;;26.37;16.57;;;7.20;87.80;;;;;;5115172;27;20031;-80
2020/12/02 00:52:25;;;;;;;31.57;17.90;;;7.20;87.90;;;;;;5096962;28;20028;-80
2020/12/02 00:54:51;;;;;;;26.23;15.93;;;7.20;88.10;;;;;;5111346;28;20079;-80
2020/12/02 00:57:31;;;;;;;25.03;16.63;;;7.30;88.00;;;;;;5113375;28;20480;-79
2020/12/02 00:59:58;;;;;;;26.07;17.27;;;7.30;87.90;;;;;;5131608;28;20055;-79
2020/12/02 01:02:38;;;;;;;24.27;16.33;;;7.30;87.90;;;;;;5123942;28;20298;-78
2020/12/02 01:05:09;;;;;;;26.03;17.30;;;7.40;87.90;;;;;;5126602;28;20261;-79
2020/12/02 01:07:39;;;;;;;27.77;17.40;;;7.40;87.90;;;;;;5147523;28;20061;-79
2020/12/02 01:10:05;;;;;;;26.97;16.97;;;7.40;87.80;;;;;;5127544;28;20032;-79
2020/12/02 01:12:32;;;;;;;27.17;15.87;;;7.40;87.70;;;;;;5118841;28;20140;-80
2020/12/02 01:14:58;;;;;;;28.17;17.23;;;7.30;87.60;;;;;;5119377;28;20455;-80
2020/12/02 01:17:23;;;;;;;27.80;17.13;;;7.20;87.80;;;;;;5101790;28;20035;-80
2020/12/02 01:19:49;;;;;;;27.53;17.43;;;7.10;88.30;;;;;;5119497;28;20035;-80
2020/12/02 01:22:22;;;;;;;28.60;17.77;;;7.20;88.40;;;;;;5116981;28;20034;-81
2020/12/02 01:25:10;;;;;;;29.02;17.85;;;7.20;88.50;;;;;;5113770;28;20497;-80
2020/12/02 01:27:59;;;;;;;26.17;16.50;;;7.20;88.40;;;;;;5131300;28;20479;-79
2020/12/02 01:30:25;;;;;;;29.03;17.17;;;7.20;88.40;;;;;;5113748;28;20026;-80
2020/12/02 01:32:51;;;;;;;30.33;16.37;;;7.20;88.40;;;;;;5102207;28;20119;-81
2020/12/02 01:35:23;;;;;;;27.93;17.03;;;7.20;88.50;;;;;;5076802;28;20028;-80
2020/12/02 01:37:54;;;;;;;27.20;16.40;;;7.20;88.70;;;;;;5101226;28;20049;-80
2020/12/02 01:40:28;;;;;;;30.47;17.17;;;7.20;88.60;;;;;;5131355;28;20047;-80
2020/12/02 01:43:00;;;;;;;26.67;15.90;;;7.20;88.50;;;;;;5112670;28;20113;-80
2020/12/02 01:45:26;;;;;;;27.20;16.43;;;7.20;88.60;;;;;;5132192;28;20371;-80
2020/12/02 01:48:28;;;;;;;27.43;15.10;;;7.20;88.50;;;;;;5111278;28;20027;-80
2020/12/02 01:51:00;;;;;;;31.00;16.40;;;7.20;88.60;;;;;;5111433;28;20506;-80
2020/12/02 01:54:03;;;;;;;27.77;15.80;;;7.10;88.70;;;;;;5113841;28;20435;-80
2020/12/02 01:57:00;;;;;;;33.47;16.25;;;7.00;88.80;;;;;;5112908;28;20035;-80
2020/12/02 01:59:50;;;;;;;31.73;16.37;;;7.10;88.90;;;;;;5111671;28;20023;-78
2020/12/02 02:02:45;;;;;;;27.93;15.67;;;7.00;88.80;;;;;;5112905;28;20031;-79
2020/12/02 02:05:25;;;;;;;31.53;16.67;;;7.10;88.90;;;;;;5131983;28;20027;-80
2020/12/02 02:07:53;;;;;;;32.23;17.40;;;7.10;88.80;;;;;;5112731;28;20031;-80
2020/12/02 02:10:23;;;;;;;35.73;17.37;;;7.10;88.80;;;;;;5112905;28;20023;-80
2020/12/02 02:12:55;;;;;;;37.93;17.77;;;7.00;88.80;;;;;;5112990;27;20475;-80
2020/12/02 02:15:47;;;;;;;29.57;16.27;;;7.10;89.00;;;;;;5105763;28;20082;-80
2020/12/02 02:18:19;;;;;;;28.07;15.53;;;7.10;89.10;;;;;;5122225;27;20029;-80
2020/12/02 02:20:51;;;;;;;31.17;17.20;;;7.20;89.00;;;;;;5116377;27;20067;-79
2020/12/02 02:23:18;;;;;;;34.33;17.13;;;7.20;88.90;;;;;;5138236;27;20020;-80
2020/12/02 02:25:56;;;;;;;36.40;19.60;;;7.20;88.90;;;;;;5139799;27;20101;-81
2020/12/02 02:28:22;;;;;;;35.90;17.50;;;7.20;88.90;;;;;;5114971;27;20023;-81
2020/12/02 02:30:50;;;;;;;34.90;18.47;;;7.20;88.90;;;;;;5115038;27;20467;-80
2020/12/02 02:33:16;;;;;;;34.67;17.93;;;7.10;88.90;;;;;;5098356;27;20434;-81
2020/12/02 02:35:42;;;;;;;34.57;17.10;;;7.10;88.90;;;;;;5134487;27;20057;-80
2020/12/02 02:38:08;;;;;;;36.23;18.30;;;7.20;89.00;;;;;;5081088;27;20055;-81
2020/12/02 02:40:34;;;;;;;34.73;18.67;;;7.20;89.00;;;;;;5115148;27;20089;-81
2020/12/02 02:43:04;;;;;;;34.80;17.87;;;7.20;89.10;;;;;;5096757;27;20042;-81
2020/12/02 02:45:29;;;;;;;36.67;17.50;;;7.20;89.10;;;;;;5115611;27;20031;-82
2020/12/02 02:47:59;;;;;;;34.17;16.73;;;7.30;89.20;;;;;;5101588;27;20037;-81
2020/12/02 02:50:26;;;;;;;35.47;19.10;;;7.30;89.00;;;;;;5116086;27;20389;-81
2020/12/02 02:52:52;;;;;;;36.87;17.93;;;7.20;88.70;;;;;;5114022;27;20042;-81
2020/12/02 02:55:24;;;;;;;37.10;19.37;;;7.30;88.90;;;;;;5099502;27;20048;-82
2020/12/02 02:57:50;;;;;;;39.47;18.40;;;7.20;88.90;;;;;;5114156;27;20027;-79
2020/12/02 03:00:27;;;;;;;38.00;19.00;;;7.20;88.90;;;;;;5133095;27;20102;-82
2020/12/02 03:02:52;;;;;;;36.17;19.47;;;7.20;88.90;;;;;;5114326;27;20076;-81
2020/12/02 03:05:19;;;;;;;38.30;18.40;;;7.20;89.00;;;;;;5085294;27;20027;-82
2020/12/02 03:07:59;;;;;;;40.67;20.03;;;7.30;89.10;;;;;;5116400;27;20031;-82
2020/12/02 03:10:32;;;;;;;43.03;20.30;;;7.30;89.00;;;;;;5105747;28;20031;-82
2020/12/02 03:13:01;;;;;;;43.17;20.10;;;7.20;89.00;;;;;;5113615;28;20046;-82
2020/12/02 03:15:27;;;;;;;45.13;21.17;;;7.20;89.10;;;;;;5103475;27;20493;-81
2020/12/02 03:17:54;;;;;;;45.63;20.00;;;7.20;89.20;;;;;;5095454;28;20493;-82
2020/12/02 03:21:01;;;;;;;44.03;20.80;;;7.20;89.20;;;;;;5096133;28;20042;-82
2020/12/02 03:23:26;;;;;;;36.93;19.40;;;7.10;89.20;;;;;;5084825;28;20043;-82
2020/12/02 03:25:53;;;;;;;42.57;21.00;;;7.10;89.30;;;;;;5097032;27;20046;-80
2020/12/02 03:28:20;;;;;;;51.83;21.90;;;7.10;89.40;;;;;;5096894;27;20364;-82
2020/12/02 03:30:46;;;;;;;46.00;21.80;;;7.10;89.40;;;;;;5114545;27;20031;-81
2020/12/02 03:33:16;;;;;;;52.27;22.77;;;7.10;89.40;;;;;;5111663;27;20695;-82
2020/12/02 03:35:41;;;;;;;53.37;23.40;;;7.10;89.40;;;;;;5126513;27;20015;-82
2020/12/02 03:38:08;;;;;;;43.87;20.80;;;7.10;89.60;;;;;;5106563;28;20050;-82
2020/12/02 03:40:34;;;;;;;55.97;25.13;;;7.10;89.50;;;;;;5102020;27;20031;-82
2020/12/02 03:42:59;;;;;;;59.60;24.83;;;7.10;89.50;;;;;;5115177;27;20038;-82
2020/12/02 03:45:25;;;;;;;51.63;24.43;;;7.00;89.60;;;;;;5114547;27;20050;-84
2020/12/02 03:47:50;;;;;;;59.47;25.13;;;6.90;89.80;;;;;;5097021;27;20027;-80
2020/12/02 03:50:16;;;;;;;63.30;26.23;;;7.00;90.00;;;;;;5096840;27;20451;-83
2020/12/02 03:52:42;;;;;;;60.07;24.20;;;7.00;89.90;;;;;;5133373;27;20022;-83
2020/12/02 03:55:08;;;;;;;56.73;24.60;;;7.00;90.00;;;;;;5131011;27;20455;-80
2020/12/02 03:57:34;;;;;;;58.97;23.97;;;7.00;90.00;;;;;;5099666;28;20468;-82
2020/12/02 04:00:00;;;;;;;52.60;23.80;;;7.10;90.00;;;;;;5113282;27;20027;-82
2020/12/02 04:02:26;;;;;;;60.60;24.87;;;7.20;90.00;;;;;;5097060;27;20023;-82
2020/12/02 04:04:52;;;;;;;62.47;25.50;;;7.10;89.80;;;;;;5113672;27;20027;-80
2020/12/02 04:07:18;;;;;;;67.23;27.80;;;7.00;89.90;;;;;;5114098;27;20031;-80
2020/12/02 04:09:44;;;;;;;56.10;24.23;;;7.10;89.90;;;;;;5114138;27;20057;-83
2020/12/02 04:12:09;;;;;;;61.70;25.83;;;7.10;89.90;;;;;;5132143;27;20050;-83
2020/12/02 04:14:35;;;;;;;57.40;26.17;;;7.00;89.80;;;;;;5096916;27;20027;-81
2020/12/02 04:17:01;;;;;;;66.40;27.10;;;7.00;90.00;;;;;;5092718;28;20028;-83
2020/12/02 04:19:26;;;;;;;59.70;26.07;;;7.10;90.00;;;;;;5129463;27;20034;-83
2020/12/02 04:21:56;;;;;;;60.57;26.23;;;7.10;90.00;;;;;;5114191;27;20027;-80
2020/12/02 04:24:22;;;;;;;60.63;25.53;;;7.10;90.00;;;;;;5092031;28;20027;-82
2020/12/02 04:26:48;;;;;;;56.77;26.00;;;7.10;90.00;;;;;;5114141;27;20068;-83
2020/12/02 04:29:13;;;;;;;63.80;26.23;;;7.10;90.00;;;;;;5104779;28;20084;-81
2020/12/02 04:31:39;;;;;;;61.40;25.83;;;7.20;90.00;;;;;;5093941;28;20036;-80
2020/12/02 04:34:04;;;;;;;60.43;26.63;;;7.20;89.80;;;;;;5116577;27;20064;-81
2020/12/02 04:36:30;;;;;;;53.13;23.73;;;7.20;89.60;;;;;;5150447;27;20027;-79
2020/12/02 04:38:56;;;;;;;61.43;26.17;;;7.20;89.70;;;;;;5147092;27;20030;-78
2020/12/02 04:41:21;;;;;;;58.13;26.13;;;7.30;89.60;;;;;;5128648;27;20031;-81
2020/12/02 04:43:52;;;;;;;64.37;26.87;;;7.20;89.60;;;;;;5080152;27;20372;-80
2020/12/02 04:46:21;;;;;;;66.17;27.40;;;7.20;89.70;;;;;;5113314;27;20025;-81
2020/12/02 04:48:52;;;;;;;59.13;26.63;;;7.10;89.70;;;;;;5114185;28;20039;-81
2020/12/02 04:51:21;;;;;;;60.67;26.53;;;7.10;89.80;;;;;;5130044;27;20043;-81
2020/12/02 04:53:50;;;;;;;65.87;26.97;;;7.10;89.90;;;;;;5132525;27;20027;-81
2020/12/02 04:56:16;;;;;;;55.80;24.90;;;7.10;89.90;;;;;;5112727;27;20022;-80
2020/12/02 04:58:42;;;;;;;63.73;26.63;;;7.10;90.00;;;;;;5112122;28;20454;-81
2020/12/02 05:01:23;;;;;;;66.87;26.63;;;7.10;89.80;;;;;;5076295;28;20023;-81
2020/12/02 05:03:53;;;;;;;64.23;26.30;;;7.10;90.00;;;;;;5093574;28;20019;-79
2020/12/02 05:06:40;;;;;;;54.97;25.20;;;7.10;89.80;;;;;;5101921;28;20058;-82
2020/12/02 05:09:22;;;;;;;57.53;25.57;;;7.10;90.10;;;;;;5113046;28;20020;-82
2020/12/02 05:12:12;;;;;;;54.33;25.07;;;7.10;90.00;;;;;;5101440;28;20031;-82
2020/12/02 05:14:44;;;;;;;55.47;25.27;;;7.20;89.80;;;;;;5111610;28;20024;-81
2020/12/02 05:17:18;;;;;;;58.60;25.33;;;7.20;89.70;;;;;;5105201;28;20027;-82
2020/12/02 05:20:04;;;;;;;54.43;24.93;;;7.10;89.70;;;;;;5113362;28;20027;-81
2020/12/02 05:22:34;;;;;;;57.87;26.37;;;7.10;89.90;;;;;;5130412;28;20027;-80
2020/12/02 05:25:00;;;;;;;57.60;26.47;;;7.30;89.90;;;;;;5112034;28;20027;-81
2020/12/02 05:27:32;;;;;;;63.07;26.97;;;7.20;89.70;;;;;;5113083;28;20474;-82
2020/12/02 05:30:20;;;;;;;52.47;26.60;;;7.30;89.70;;;;;;5130724;28;20035;-79
2020/12/02 05:33:04;;;;;;;60.53;27.03;;;7.30;89.60;;;;;;5108562;28;20108;-81
2020/12/02 05:35:33;;;;;;;56.40;26.67;;;7.30;89.50;;;;;;5101380;28;20023;-81
2020/12/02 05:38:00;;;;;;;62.80;27.63;;;7.20;89.50;;;;;;5129910;28;20042;-79
2020/12/02 05:40:28;;;;;;;61.03;28.10;;;7.00;89.80;;;;;;5112011;28;20035;-81
2020/12/02 05:42:59;;;;;;;68.60;29.30;;;7.00;89.90;;;;;;5113473;28;20038;-80
2020/12/02 05:45:30;;;;;;;63.47;29.37;;;6.90;90.00;;;;;;5112170;28;20045;-81
2020/12/02 05:47:56;;;;;;;67.10;29.90;;;6.90;90.00;;;;;;5113475;27;20026;-81
2020/12/02 05:50:24;;;;;;;59.40;28.10;;;6.90;90.10;;;;;;5134615;27;20051;-81
2020/12/02 05:52:59;;;;;;;67.43;29.50;;;6.90;90.10;;;;;;5096174;28;20039;-81
2020/12/02 05:55:30;;;;;;;61.23;26.80;;;6.90;90.10;;;;;;5113917;28;20047;-82
2020/12/02 05:57:57;;;;;;;62.10;29.53;;;7.00;90.10;;;;;;5097464;28;20115;-81
2020/12/02 06:00:26;;;;;;;62.50;28.70;;;7.10;90.10;;;;;;5116310;27;20046;-82
2020/12/02 06:02:53;;;;;;;68.27;30.97;;;7.10;90.00;;;;;;5115429;27;20165;-82
2020/12/02 06:05:20;;;;;;;71.47;31.57;;;7.10;90.00;;;;;;5117184;27;20041;-82
2020/12/02 06:07:52;;;;;;;66.27;31.17;;;7.20;90.00;;;;;;5119733;27;20117;-82
2020/12/02 06:10:24;;;;;;;78.80;33.27;;;7.10;89.90;;;;;;5115817;27;20816;-82
2020/12/02 06:12:50;;;;;;;62.92;30.25;;;7.20;90.00;;;;;;5118951;27;20117;-82
2020/12/02 06:15:20;;;;;;;62.07;28.17;;;7.20;89.70;;;;;;5095946;28;20460;-81
2020/12/02 06:17:46;;;;;;;70.87;29.00;;;7.30;89.70;;;;;;5101610;27;20023;-81
2020/12/02 06:20:12;;;;;;;74.37;30.47;;;7.30;89.60;;;;;;5115910;27;20039;-80
2020/12/02 06:22:53;;;;;;;74.13;31.73;;;7.20;89.40;;;;;;5095654;28;20028;-81
2020/12/02 06:25:46;;;;;;;76.77;32.87;;;7.20;89.40;;;;;;5104146;27;20853;-81
2020/12/02 06:28:12;;;;;;;;;;;7.10;89.20;;;;;;5100649;27;20034;-81
2020/12/02 06:30:38;;;;;;;72.17;30.10;;;7.00;89.30;;;;;;5117026;27;19946;-82
2020/12/02 06:33:19;;;;;;;77.13;32.40;;;7.00;89.50;;;;;;5093081;27;20424;-80
2020/12/02 06:35:48;;;;;;;70.73;30.13;;;7.10;89.70;;;;;;5118979;27;20035;-81
2020/12/02 06:38:20;;;;;;;74.53;30.97;;;7.10;89.50;;;;;;5098275;27;20121;-81
2020/12/02 06:41:00;;;;;;;71.83;31.97;;;7.20;89.50;;;;;;5134107;27;20363;-79
2020/12/02 06:43:31;;;;;;;79.03;33.97;;;7.10;89.40;;;;;;5114689;27;20030;-81
2020/12/02 06:46:04;;;;;;;81.10;34.57;;;7.00;89.40;;;;;;5111869;27;20019;-80
2020/12/02 06:48:37;;;;;;;77.37;32.73;;;6.90;89.40;;;;;;5107206;27;20039;-79
2020/12/02 06:51:11;;;;;;;90.53;35.70;;;7.00;89.60;;;;;;5096041;28;20442;-79
2020/12/02 06:53:36;;;;;;;75.67;32.13;;;7.00;89.50;;;;;;5095881;28;20103;-80
2020/12/02 06:56:04;;;;;;;83.17;34.33;;;7.00;89.40;;;;;;5106777;28;20115;-79
2020/12/02 06:58:30;;;;;;;90.80;32.73;;;7.00;89.40;;;;;;5103449;28;20469;-81
2020/12/02 07:01:02;;;;;;;75.10;31.83;;;7.00;89.50;;;;;;5106251;28;20062;-81
2020/12/02 07:03:44;;;;;;;80.87;32.87;;;7.00;89.60;;;;;;5109766;28;20492;-81
2020/12/02 07:06:20;;;;;;;81.20;33.80;;;7.00;89.50;;;;;;5111270;27;20023;-81
2020/12/02 07:08:49;;;;;;;80.33;32.27;;;6.90;89.50;;;;;;5096202;28;20107;-81
2020/12/02 07:11:17;;;;;;;77.70;33.07;;;7.00;89.60;;;;;;5108711;28;20032;-80
2020/12/02 07:13:45;;;;;;;84.97;32.80;;;7.00;89.70;;;;;;5112716;28;20496;-80
2020/12/02 07:16:32;;;;;;;84.73;32.77;;;7.00;89.70;;;;;;5109100;27;20016;-80
2020/12/02 07:18:59;;;;;;;88.50;34.27;;;7.10;89.80;;;;;;5109384;28;20144;-81
2020/12/02 07:21:27;;;;;;;81.03;32.90;;;7.10;89.70;;;;;;5102446;28;20043;-80
2020/12/02 07:23:54;;;;;;;88.43;34.00;;;7.10;89.50;;;;;;5102770;28;20038;-80
2020/12/02 07:26:21;;;;;;;76.80;32.30;;;7.00;89.60;;;;;;5104329;28;20024;-80
2020/12/02 07:28:54;;;;;;;79.07;33.77;;;7.10;89.70;;;;;;5110781;28;20063;-81
2020/12/02 07:31:25;;;;;;;98.37;36.40;;;7.10;89.60;;;;;;5094321;28;20048;-81
2020/12/02 07:34:01;;;;;;;93.00;34.20;;;7.20;89.70;;;;;;5110825;28;20063;-81
2020/12/02 07:36:30;;;;;;;90.03;34.63;;;7.10;89.50;;;;;;5114213;28;20050;-83
2020/12/02 07:39:20;;;;;;;86.30;35.57;;;7.20;89.60;;;;;;5110634;28;20031;-81
2020/12/02 07:42:04;;;;;;;100.57;38.97;;;7.20;89.70;;;;;;5109192;28;20480;-81
2020/12/02 07:44:43;;;;;;;93.93;37.97;;;7.10;89.60;;;;;;5111739;28;20506;-83
2020/12/02 07:47:13;;;;;;;87.57;36.37;;;7.00;89.60;;;;;;5103116;28;20034;-80
2020/12/02 07:49:42;;;;;;;92.93;37.63;;;7.10;89.80;;;;;;5112458;28;20020;-81
2020/12/02 07:52:16;;;;;;;99.27;38.50;;;7.10;89.70;;;;;;5112818;28;20144;-81
2020/12/02 07:54:42;;;;;;;101.80;39.20;;;7.00;89.60;;;;;;5114425;28;20788;-83
2020/12/02 07:57:12;;;;;;;101.23;39.10;;;7.00;89.70;;;;;;5096171;28;20027;-80
2020/12/02 07:59:45;;;;;;;101.43;39.60;;;6.90;89.80;;;;;;5115292;28;20027;-80
2020/12/02 08:02:17;;;;;;;98.35;37.65;;;6.90;89.80;;;;;;5114383;28;20475;-82
2020/12/02 08:04:50;;;;;;;115.53;40.30;;;6.90;89.80;;;;;;5098213;28;20784;-81
2020/12/02 08:07:16;;;;;;;109.20;39.73;;;6.90;89.90;;;;;;5090153;28;20031;-81
2020/12/02 08:09:49;;;;;;;110.37;39.37;;;6.80;89.90;;;;;;5109918;28;20019;-81
2020/12/02 08:12:30;;;;;;;104.88;38.90;;;6.80;90.00;;;;;;5104053;28;20028;-81
2020/12/02 08:15:06;;;;;;;96.20;38.50;;;6.90;90.00;;;;;;5110576;28;20028;-79
2020/12/02 08:17:33;;;;;;;101.27;40.43;;;6.90;90.00;;;;;;5111074;28;20027;-80
2020/12/02 08:20:00;;;;;;;105.20;40.83;;;6.90;90.00;;;;;;5093764;28;20344;-79
2020/12/02 08:22:57;;;;;;;106.43;39.80;;;6.90;90.00;;;;;;5106132;28;20039;-80
2020/12/02 08:25:52;;;;;;;103.50;38.53;;;7.00;89.90;;;;;;5093222;28;20089;-80
2020/12/02 08:28:26;;;;;;;93.23;38.27;;;7.00;89.90;;;;;;5070709;28;20037;-82
2020/12/02 08:31:09;;;;;;;107.77;40.57;;;7.00;89.80;;;;;;5113251;28;20046;-82
2020/12/02 08:33:35;;;;;;;102.68;39.63;;;7.00;89.70;;;;;;5111906;28;20027;-82
2020/12/02 08:36:07;;;;;;;110.77;40.87;;;7.00;89.70;;;;;;5093594;28;20098;-81
2020/12/02 08:38:38;;;;;;;106.07;41.75;;;7.00;89.80;;;;;;5105761;28;20024;-81
2020/12/02 08:41:14;;;;;;;112.50;40.80;;;7.10;89.80;;;;;;5115100;28;20036;-83
2020/12/02 08:43:52;;;;;;;116.63;39.93;;;7.10;89.90;;;;;;5109738;28;20114;-82
2020/12/02 08:46:27;;;;;;;97.47;37.23;;;7.30;90.00;;;;;;5111860;28;20126;-82
2020/12/02 08:48:57;;;;;;;114.13;37.67;;;7.20;89.70;;;;;;5110996;28;20023;-81
2020/12/02 08:51:24;;;;;;;91.40;36.83;;;7.20;89.70;;;;;;5108056;28;20048;-82
2020/12/02 08:53:51;;;;;;;100.50;35.80;;;7.20;89.60;;;;;;5089450;28;20032;-80
2020/12/02 08:56:35;;;;;;;95.30;35.97;;;7.10;89.70;;;;;;5106145;28;20119;-81
2020/12/02 08:59:02;;;;;;;105.10;36.90;;;7.10;89.90;;;;;;5105800;28;20031;-81
2020/12/02 09:01:28;;;;;;;113.03;39.10;;;7.10;90.00;;;;;;5104784;28;20120;-80
2020/12/02 09:03:54;;;;;;;108.00;38.13;;;7.20;90.10;;;;;;5115796;28;20035;-80
2020/12/02 09:06:21;;;;;;;105.00;38.20;;;7.20;90.00;;;;;;5119016;28;20031;-81
2020/12/02 09:08:47;;;;;;;94.27;36.43;;;7.30;89.90;;;;;;5104660;28;20104;-80
2020/12/02 09:11:18;;;;;;;112.80;38.93;;;7.40;89.80;;;;;;5121955;28;20043;-80
2020/12/02 09:13:44;;;;;;;101.83;38.83;;;7.30;89.50;;;;;;5122257;28;20143;-83
2020/12/02 09:16:10;;;;;;;112.13;41.43;;;7.20;89.40;;;;;;5117478;28;20078;-78
2020/12/02 09:18:36;;;;;;;106.17;38.70;;;7.30;89.70;;;;;;5114559;28;20123;-83
2020/12/02 09:21:02;;;;;;;106.60;39.80;;;7.20;89.40;;;;;;5121241;28;20104;-82
2020/12/02 09:23:27;;;;;;;102.13;38.90;;;7.20;89.40;;;;;;5094854;28;20169;-82
2020/12/02 09:25:53;;;;;;;107.23;38.60;;;7.10;89.40;;;;;;5112893;28;20735;-80
2020/12/02 09:28:18;;;;;;;95.27;37.47;;;7.10;89.40;;;;;;5110224;28;20024;-80
2020/12/02 09:30:44;;;;;;;95.37;38.90;;;7.10;89.40;;;;;;5094561;28;20129;-81
2020/12/02 09:33:10;;;;;;;88.17;38.20;;;7.10;89.50;;;;;;5105592;28;20035;-80
2020/12/02 09:35:36;;;;;;;90.70;37.13;;;7.10;89.50;;;;;;5113882;28;20024;-79
2020/12/02 09:38:01;;;;;;;90.87;38.07;;;7.10;89.20;;;;;;5115532;28;20039;-81
2020/12/02 09:40:27;;;;;;;85.07;36.03;;;7.10;89.00;;;;;;5114023;28;20039;-81
2020/12/02 09:43:14;;;;;;;92.87;36.60;;;7.10;89.00;;;;;;5113916;28;20040;-82
2020/12/02 09:45:49;;;;;;;97.00;36.53;;;7.20;89.00;;;;;;5111817;28;20205;-81
2020/12/02 09:48:19;;;;;;;103.93;39.97;;;7.20;89.00;;;;;;5113680;28;20032;-80
2020/12/02 09:50:45;;;;;;;93.20;37.43;;;7.20;88.70;;;;;;5112395;28;20052;-81
2020/12/02 09:53:19;;;;;;;85.73;35.77;;;7.20;88.90;;;;;;5113158;28;20093;-81
2020/12/02 09:55:45;;;;;;;89.60;36.33;;;7.20;88.70;;;;;;5113117;28;20471;-81
2020/12/02 09:58:12;;;;;;;90.37;37.07;;;7.10;88.70;;;;;;5121311;28;20028;-79
2020/12/02 10:00:38;;;;;;;87.87;38.03;;;7.00;88.60;;;;;;5124110;28;20110;-81
2020/12/02 10:03:39;;;;;;;86.83;38.50;;;7.10;88.70;;;;;;5105876;28;20047;-81
2020/12/02 10:06:16;;;;;;;94.90;39.17;;;7.10;88.70;;;;;;5041449;27;20033;-81
2020/12/02 10:08:53;;;;;;;86.70;36.73;;;7.20;88.70;;;;;;5111510;28;20044;-81
2020/12/02 10:11:41;;;;;;;93.33;39.00;;;7.20;88.60;;;;;;5112487;28;20489;-81
2020/12/02 10:14:25;;;;;;;94.07;38.17;;;7.30;88.60;;;;;;5112685;28;20165;-81
2020/12/02 10:17:26;;;;;;;91.87;38.27;;;7.20;88.30;;;;;;5111684;28;20144;-81
2020/12/02 10:20:16;;;;;;;80.30;35.10;;;7.20;88.30;;;;;;5112334;28;20035;-81
2020/12/02 10:23:02;;;;;;;79.37;35.33;;;7.30;88.50;;;;;;5114980;28;20106;-80
2020/12/02 10:25:37;;;;;;;78.17;35.13;;;7.40;88.20;;;;;;5113270;28;20066;-81
2020/12/02 10:28:16;;;;;;;74.03;33.90;;;7.40;88.20;;;;;;5094454;28;20032;-80
2020/12/02 10:30:57;;;;;;;79.73;35.57;;;7.50;88.10;;;;;;5111849;28;20046;-81
2020/12/02 10:33:28;;;;;;;73.53;35.33;;;7.50;88.00;;;;;;5111115;28;20085;-81
2020/12/02 10:35:57;;;;;;;69.10;32.47;;;7.60;87.80;;;;;;5112085;28;20118;-80
2020/12/02 10:38:44;;;;;;;71.10;34.40;;;7.60;87.70;;;;;;5111319;28;20115;-80
2020/12/02 10:41:34;;;;;;;72.87;34.43;;;7.70;87.60;;;;;;5113368;28;20027;-81
2020/12/02 10:44:07;;;;;;;68.77;32.83;;;7.70;87.50;;;;;;5112768;28;20181;-81
2020/12/02 10:46:52;;;;;;;67.13;32.70;;;7.80;87.40;;;;;;5111115;28;20027;-81
2020/12/02 10:49:24;;;;;;;67.43;33.17;;;7.80;87.30;;;;;;5110530;28;20019;-79
2020/12/02 10:51:50;;;;;;;73.20;35.83;;;7.80;87.00;;;;;;5110455;28;20054;-80
2020/12/02 10:54:16;;;;;;;73.53;35.63;;;7.80;86.80;;;;;;5112893;28;20451;-79
2020/12/02 10:56:42;;;;;;;70.73;34.73;;;7.90;86.80;;;;;;5110998;28;20036;-81
2020/12/02 10:59:13;;;;;;;78.53;37.90;;;7.80;86.70;;;;;;5093716;28;20812;-81
2020/12/02 11:01:41;;;;;;;67.30;33.70;;;7.80;85.90;;;;;;5107336;28;20034;-80
2020/12/02 11:04:08;;;;;;;68.73;33.90;;;7.70;86.10;;;;;;5112163;28;20024;-82
2020/12/02 11:07:01;;;;;;;66.60;34.53;;;7.70;86.20;;;;;;5112076;28;20027;-82
2020/12/02 11:09:45;;;;;;;68.07;33.28;;;7.70;86.30;;;;;;5111056;28;20042;-82
2020/12/02 11:12:35;;;;;;;61.77;31.23;;;7.80;86.20;;;;;;5106543;28;20050;-82
2020/12/02 11:15:07;;;;;;;63.00;31.77;;;7.80;86.10;;;;;;5111944;28;20038;-82
2020/12/02 11:17:54;;;;;;;62.23;31.37;;;7.90;86.00;;;;;;5111095;28;20032;-80
2020/12/02 11:20:26;;;;;;;61.17;32.00;;;7.90;86.10;;;;;;5111732;28;20038;-79
2020/12/02 11:22:59;;;;;;;61.53;32.30;;;8.00;86.10;;;;;;5110420;28;20019;-81
2020/12/02 11:25:59;;;;;;;63.17;32.03;;;8.10;85.90;;;;;;5112982;28;20020;-81
2020/12/02 11:28:25;;;;;;;66.77;33.83;;;8.10;85.60;;;;;;5069099;28;20044;-81
2020/12/02 11:30:51;;;;;;;61.50;32.10;;;8.10;85.70;;;;;;5089662;28;20498;-82
2020/12/02 11:33:25;;;;;;;61.00;32.47;;;8.20;85.90;;;;;;5075923;28;20358;-82
2020/12/02 11:36:06;;;;;;;62.63;32.47;;;8.30;85.70;;;;;;5110516;28;20026;-80
2020/12/02 11:38:50;;;;;;;75.20;36.40;;;8.30;85.30;;;;;;5109977;28;20028;-79
2020/12/02 11:41:44;;;;;;;70.13;34.93;;;8.20;85.10;;;;;;5104644;28;20085;-79
2020/12/02 11:44:22;;;;;;;70.20;35.42;;;8.10;85.10;;;;;;5104657;28;20051;-81
2020/12/02 11:46:57;;;;;;;75.47;35.43;;;8.00;85.30;;;;;;5109398;28;20055;-81
2020/12/02 11:49:36;;;;;;;73.53;35.47;;;8.00;85.50;;;;;;5109226;28;20030;-79
2020/12/02 11:52:28;;;;;;;70.13;33.97;;;8.00;85.70;;;;;;5111086;28;20047;-82
2020/12/02 11:54:55;;;;;;;71.77;34.40;;;8.20;86.10;;;;;;5106761;28;20027;-80
2020/12/02 11:57:21;;;;;;;75.53;38.13;;;8.40;86.30;;;;;;5103297;28;20032;-79
2020/12/02 11:59:46;;;;;;;74.47;36.70;;;8.40;85.90;;;;;;5107487;28;20107;-82
2020/12/02 12:02:48;;;;;;;75.57;35.80;;;8.50;85.70;;;;;;5112725;28;20498;-81
2020/12/02 12:05:36;;;;;;;73.30;34.97;;;8.50;85.80;;;;;;5091817;28;20467;-81
2020/12/02 12:08:16;;;;;;;80.20;36.33;;;8.60;85.70;;;;;;5090498;28;20032;-82
2020/12/02 12:10:50;;;;;;;77.50;37.83;;;8.60;85.50;;;;;;5104713;28;20020;-81
2020/12/02 12:13:34;;;;;;;70.37;34.50;;;8.60;85.60;;;;;;5111171;28;20439;-82
2020/12/02 12:16:31;;;;;;;73.20;34.90;;;8.60;85.50;;;;;;5109470;28;20019;-82
2020/12/02 12:19:02;;;;;;;76.20;35.83;;;8.60;85.30;;;;;;5090573;28;20028;-82
2020/12/02 12:21:32;;;;;;;76.17;35.57;;;8.60;85.20;;;;;;5097228;28;20031;-81
2020/12/02 12:24:07;;;;;;;81.07;36.17;;;8.60;85.20;;;;;;5110109;28;20107;-78
2020/12/02 12:26:42;;;;;;;76.60;35.47;;;8.50;85.10;;;;;;5102202;28;20031;-82
2020/12/02 12:29:10;;;;;;;76.93;35.87;;;8.50;85.20;;;;;;5105814;28;20028;-81
2020/12/02 12:31:57;;;;;;;68.57;33.83;;;8.60;85.50;;;;;;5100736;28;20126;-81
2020/12/02 12:34:49;;;;;;;78.83;35.27;;;8.60;85.50;;;;;;5092032;28;20099;-79
2020/12/02 12:37:26;;;;;;;75.20;34.30;;;8.60;85.40;;;;;;5101705;28;20050;-79
2020/12/02 12:39:59;;;;;;;73.40;34.80;;;8.60;85.40;;;;;;5095331;28;20031;-79
2020/12/02 12:42:27;;;;;;;74.68;34.42;;;8.60;85.40;;;;;;5093084;28;20075;-78
2020/12/02 12:44:55;;;;;;;79.50;35.73;;;8.70;85.30;;;;;;5102064;28;20096;-79
2020/12/02 12:47:26;;;;;;;82.83;35.17;;;8.60;85.20;;;;;;5100157;28;20032;-81
2020/12/02 12:49:54;;;;;;;75.30;34.77;;;8.60;85.10;;;;;;5102704;27;20030;-81
2020/12/02 12:52:26;;;;;;;82.73;36.33;;;8.50;85.20;;;;;;5095696;27;20428;-79
2020/12/02 12:54:52;;;;;;;90.28;37.17;;;8.50;85.10;;;;;;5130962;27;20386;-81
2020/12/02 12:57:21;;;;;;;84.90;35.63;;;8.40;85.00;;;;;;5131436;27;20027;-81
2020/12/02 12:59:47;;;;;;;83.57;36.80;;;8.30;85.10;;;;;;5109118;28;20031;-81
2020/12/02 13:02:22;;;;;;;83.27;38.00;;;8.20;85.30;;;;;;5121850;27;20035;-81
2020/12/02 13:04:48;;;;;;;88.17;37.57;;;8.30;85.40;;;;;;5104798;28;20034;-81